sensor_id;sensor_type;location;lat;lon;timestamp;P1;durP1;ratioP1;P2;durP2;ratioP2
42514;SDS011;28144;49.920;18.730;2024-03-23T00:51:51;37.80;;;20.13;;
42514;SDS011;28144;49.920;18.730;2024-03-23T00:54:16;33.60;;;18.90;;
42514;SDS011;28144;49.920;18.730;2024-03-23T00:56:42;30.20;;;16.60;;
42514;SDS011;28144;49.920;18.730;2024-03-23T00:59:08;30.83;;;16.70;;
42514;SDS011;28144;49.920;18.730;2024-03-23T01:01:34;34.70;;;17.77;;
42514;SDS011;28144;49.920;18.730;2024-03-23T01:03:59;27.83;;;14.60;;
42514;SDS011;28144;49.920;18.730;2024-03-23T01:06:25;28.57;;;15.87;;
42514;SDS011;28144;49.920;18.730;2024-03-23T01:08:51;35.10;;;16.37;;
42514;SDS011;28144;49.920;18.730;2024-03-23T01:13:43;37.95;;;19.40;;
42514;SDS011;28144;49.920;18.730;2024-03-23T01:16:09;31.23;;;18.33;;
42514;SDS011;28144;49.920;18.730;2024-03-23T01:18:35;28.60;;;17.03;;
42514;SDS011;28144;49.920;18.730;2024-03-23T01:21:01;26.90;;;16.27;;
42514;SDS011;28144;49.920;18.730;2024-03-23T01:23:26;26.63;;;15.13;;
42514;SDS011;28144;49.920;18.730;2024-03-23T01:25:52;27.63;;;13.93;;
42514;SDS011;28144;49.920;18.730;2024-03-23T01:28:19;26.25;;;15.80;;
42514;SDS011;28144;49.920;18.730;2024-03-23T01:30:45;30.00;;;15.82;;
42514;SDS011;28144;49.920;18.730;2024-03-23T01:33:11;20.30;;;12.93;;
42514;SDS011;28144;49.920;18.730;2024-03-23T01:35:37;23.77;;;13.50;;
42514;SDS011;28144;49.920;18.730;2024-03-23T01:38:03;33.03;;;17.60;;
42514;SDS011;28144;49.920;18.730;2024-03-23T01:40:29;26.67;;;17.23;;
42514;SDS011;28144;49.920;18.730;2024-03-23T01:42:57;36.15;;;15.73;;
42514;SDS011;28144;49.920;18.730;2024-03-23T01:45:24;27.10;;;14.53;;
42514;SDS011;28144;49.920;18.730;2024-03-23T01:47:51;24.33;;;14.87;;
42514;SDS011;28144;49.920;18.730;2024-03-23T01:50:18;25.27;;;17.10;;
42514;SDS011;28144;49.920;18.730;2024-03-23T01:52:45;25.98;;;15.25;;
42514;SDS011;28144;49.920;18.730;2024-03-23T01:55:11;38.53;;;23.30;;
42514;SDS011;28144;49.920;18.730;2024-03-23T01:57:37;30.00;;;16.48;;
42514;SDS011;28144;49.920;18.730;2024-03-23T02:00:03;55.43;;;29.33;;
42514;SDS011;28144;49.920;18.730;2024-03-23T02:02:29;47.03;;;26.27;;
42514;SDS011;28144;49.920;18.730;2024-03-23T02:04:55;44.03;;;21.50;;
42514;SDS011;28144;49.920;18.730;2024-03-23T02:07:21;37.53;;;20.17;;
42514;SDS011;28144;49.920;18.730;2024-03-23T02:09:47;25.97;;;14.73;;
42514;SDS011;28144;49.920;18.730;2024-03-23T02:12:12;26.07;;;13.50;;
42514;SDS011;28144;49.920;18.730;2024-03-23T02:14:38;39.63;;;21.13;;
42514;SDS011;28144;49.920;18.730;2024-03-23T02:17:04;28.83;;;16.20;;
42514;SDS011;28144;49.920;18.730;2024-03-23T02:19:30;22.93;;;13.90;;
42514;SDS011;28144;49.920;18.730;2024-03-23T02:21:55;28.00;;;13.93;;
42514;SDS011;28144;49.920;18.730;2024-03-23T02:24:21;33.13;;;17.93;;
42514;SDS011;28144;49.920;18.730;2024-03-23T02:26:47;18.87;;;12.23;;
42514;SDS011;28144;49.920;18.730;2024-03-23T02:29:14;20.45;;;12.35;;
42514;SDS011;28144;49.920;18.730;2024-03-23T02:31:39;21.67;;;13.73;;
42514;SDS011;28144;49.920;18.730;2024-03-23T02:34:06;23.02;;;13.43;;
42514;SDS011;28144;49.920;18.730;2024-03-23T02:36:31;22.40;;;13.80;;
42514;SDS011;28144;49.920;18.730;2024-03-23T02:38:57;23.50;;;13.75;;
42514;SDS011;28144;49.920;18.730;2024-03-23T02:41:23;26.67;;;13.13;;
42514;SDS011;28144;49.920;18.730;2024-03-23T02:43:49;32.28;;;18.23;;
42514;SDS011;28144;49.920;18.730;2024-03-23T02:46:15;19.25;;;12.15;;
42514;SDS011;28144;49.920;18.730;2024-03-23T02:48:41;23.77;;;13.85;;
42514;SDS011;28144;49.920;18.730;2024-03-23T02:51:07;22.00;;;10.73;;
42514;SDS011;28144;49.920;18.730;2024-03-23T02:53:33;17.80;;;11.17;;
42514;SDS011;28144;49.920;18.730;2024-03-23T02:55:58;16.50;;;10.77;;
42514;SDS011;28144;49.920;18.730;2024-03-23T02:58:24;36.57;;;20.77;;
42514;SDS011;28144;49.920;18.730;2024-03-23T03:00:50;21.23;;;12.40;;
42514;SDS011;28144;49.920;18.730;2024-03-23T03:03:16;20.83;;;10.60;;
42514;SDS011;28144;49.920;18.730;2024-03-23T03:05:41;24.37;;;13.50;;
42514;SDS011;28144;49.920;18.730;2024-03-23T03:08:07;22.07;;;12.20;;
42514;SDS011;28144;49.920;18.730;2024-03-23T03:10:33;22.90;;;14.37;;
42514;SDS011;28144;49.920;18.730;2024-03-23T03:13:02;28.58;;;17.92;;
42514;SDS011;28144;49.920;18.730;2024-03-23T03:15:28;19.23;;;13.13;;
42514;SDS011;28144;49.920;18.730;2024-03-23T03:17:54;20.20;;;11.67;;
42514;SDS011;28144;49.920;18.730;2024-03-23T03:20:19;21.33;;;12.80;;
42514;SDS011;28144;49.920;18.730;2024-03-23T03:22:47;24.60;;;13.63;;
42514;SDS011;28144;49.920;18.730;2024-03-23T03:25:13;17.87;;;11.87;;
42514;SDS011;28144;49.920;18.730;2024-03-23T03:27:39;23.67;;;11.43;;
42514;SDS011;28144;49.920;18.730;2024-03-23T03:30:05;24.30;;;14.67;;
42514;SDS011;28144;49.920;18.730;2024-03-23T03:32:32;28.17;;;14.25;;
42514;SDS011;28144;49.920;18.730;2024-03-23T03:34:58;19.53;;;11.27;;
42514;SDS011;28144;49.920;18.730;2024-03-23T03:37:24;19.47;;;11.57;;
42514;SDS011;28144;49.920;18.730;2024-03-23T03:39:50;26.17;;;13.10;;
42514;SDS011;28144;49.920;18.730;2024-03-23T03:42:16;21.10;;;12.30;;
42514;SDS011;28144;49.920;18.730;2024-03-23T03:44:41;98.93;;;34.90;;
42514;SDS011;28144;49.920;18.730;2024-03-23T03:47:07;86.53;;;32.20;;
42514;SDS011;28144;49.920;18.730;2024-03-23T03:49:33;32.47;;;16.83;;
42514;SDS011;28144;49.920;18.730;2024-03-23T03:51:59;39.73;;;18.27;;
42514;SDS011;28144;49.920;18.730;2024-03-23T03:54:26;36.90;;;22.53;;
42514;SDS011;28144;49.920;18.730;2024-03-23T03:56:52;52.07;;;25.30;;
42514;SDS011;28144;49.920;18.730;2024-03-23T03:59:18;47.43;;;23.63;;
42514;SDS011;28144;49.920;18.730;2024-03-23T04:01:44;38.75;;;21.83;;
42514;SDS011;28144;49.920;18.730;2024-03-23T04:04:10;39.60;;;20.53;;
42514;SDS011;28144;49.920;18.730;2024-03-23T04:06:37;46.95;;;24.05;;
42514;SDS011;28144;49.920;18.730;2024-03-23T04:09:02;50.00;;;25.90;;
42514;SDS011;28144;49.920;18.730;2024-03-23T04:11:28;43.03;;;22.90;;
42514;SDS011;28144;49.920;18.730;2024-03-23T04:13:54;34.83;;;20.80;;
42514;SDS011;28144;49.920;18.730;2024-03-23T04:16:31;31.23;;;17.20;;
42514;SDS011;28144;49.920;18.730;2024-03-23T04:18:59;31.53;;;16.97;;
42514;SDS011;28144;49.920;18.730;2024-03-23T04:21:26;32.33;;;18.20;;
42514;SDS011;28144;49.920;18.730;2024-03-23T04:23:51;32.43;;;16.97;;
42514;SDS011;28144;49.920;18.730;2024-03-23T04:26:17;27.88;;;15.75;;
42514;SDS011;28144;49.920;18.730;2024-03-23T04:28:43;23.87;;;14.83;;
42514;SDS011;28144;49.920;18.730;2024-03-23T04:31:09;27.33;;;15.93;;
42514;SDS011;28144;49.920;18.730;2024-03-23T04:33:35;31.50;;;16.85;;
42514;SDS011;28144;49.920;18.730;2024-03-23T04:36:01;29.87;;;18.07;;
42514;SDS011;28144;49.920;18.730;2024-03-23T04:38:28;28.85;;;16.90;;
42514;SDS011;28144;49.920;18.730;2024-03-23T04:40:57;32.03;;;16.93;;
42514;SDS011;28144;49.920;18.730;2024-03-23T04:43:23;36.93;;;18.07;;
42514;SDS011;28144;49.920;18.730;2024-03-23T04:45:49;32.08;;;18.75;;
42514;SDS011;28144;49.920;18.730;2024-03-23T04:48:15;32.93;;;18.87;;
42514;SDS011;28144;49.920;18.730;2024-03-23T04:50:41;33.17;;;18.60;;
42514;SDS011;28144;49.920;18.730;2024-03-23T04:53:07;29.57;;;17.73;;
42514;SDS011;28144;49.920;18.730;2024-03-23T04:55:33;33.88;;;17.15;;
42514;SDS011;28144;49.920;18.730;2024-03-23T04:57:58;37.00;;;19.63;;
42514;SDS011;28144;49.920;18.730;2024-03-23T05:00:25;33.20;;;17.50;;
42514;SDS011;28144;49.920;18.730;2024-03-23T05:02:51;33.60;;;18.08;;
42514;SDS011;28144;49.920;18.730;2024-03-23T05:05:18;33.20;;;19.50;;
42514;SDS011;28144;49.920;18.730;2024-03-23T05:07:44;33.07;;;17.83;;
42514;SDS011;28144;49.920;18.730;2024-03-23T05:10:10;33.27;;;18.27;;
42514;SDS011;28144;49.920;18.730;2024-03-23T05:12:36;36.17;;;20.98;;
42514;SDS011;28144;49.920;18.730;2024-03-23T05:22:22;26.63;;;15.77;;
42514;SDS011;28144;49.920;18.730;2024-03-23T05:24:48;33.35;;;18.30;;
42514;SDS011;28144;49.920;18.730;2024-03-23T05:27:14;36.87;;;20.13;;
42514;SDS011;28144;49.920;18.730;2024-03-23T05:29:40;43.33;;;24.65;;
42514;SDS011;28144;49.920;18.730;2024-03-23T05:32:06;48.00;;;30.00;;
42514;SDS011;28144;49.920;18.730;2024-03-23T05:34:32;44.63;;;26.83;;
42514;SDS011;28144;49.920;18.730;2024-03-23T05:36:58;36.47;;;20.20;;
42514;SDS011;28144;49.920;18.730;2024-03-23T05:39:24;37.93;;;21.03;;
42514;SDS011;28144;49.920;18.730;2024-03-23T05:41:49;41.07;;;22.97;;
42514;SDS011;28144;49.920;18.730;2024-03-23T05:44:15;35.97;;;20.73;;
42514;SDS011;28144;49.920;18.730;2024-03-23T05:46:41;42.93;;;23.00;;
42514;SDS011;28144;49.920;18.730;2024-03-23T05:49:07;42.47;;;27.15;;
42514;SDS011;28144;49.920;18.730;2024-03-23T05:51:33;36.50;;;20.13;;
42514;SDS011;28144;49.920;18.730;2024-03-23T05:53:59;38.47;;;21.17;;
42514;SDS011;28144;49.920;18.730;2024-03-23T05:56:26;35.08;;;21.00;;
42514;SDS011;28144;49.920;18.730;2024-03-23T05:58:51;50.53;;;30.37;;
42514;SDS011;28144;49.920;18.730;2024-03-23T06:01:17;32.90;;;19.97;;
42514;SDS011;28144;49.920;18.730;2024-03-23T06:03:43;38.43;;;21.40;;
42514;SDS011;28144;49.920;18.730;2024-03-23T06:06:09;52.70;;;26.77;;
42514;SDS011;28144;49.920;18.730;2024-03-23T06:08:38;27.73;;;16.90;;
42514;SDS011;28144;49.920;18.730;2024-03-23T06:11:04;31.60;;;17.63;;
42514;SDS011;28144;49.920;18.730;2024-03-23T06:13:32;33.08;;;15.88;;
42514;SDS011;28144;49.920;18.730;2024-03-23T06:15:59;25.70;;;16.27;;
42514;SDS011;28144;49.920;18.730;2024-03-23T06:18:27;24.20;;;16.20;;
42514;SDS011;28144;49.920;18.730;2024-03-23T06:20:53;23.87;;;15.60;;
42514;SDS011;28144;49.920;18.730;2024-03-23T06:23:20;41.85;;;24.58;;
42514;SDS011;28144;49.920;18.730;2024-03-23T06:25:46;25.02;;;16.90;;
42514;SDS011;28144;49.920;18.730;2024-03-23T06:28:12;24.98;;;15.15;;
42514;SDS011;28144;49.920;18.730;2024-03-23T06:30:39;27.45;;;15.10;;
42514;SDS011;28144;49.920;18.730;2024-03-23T06:33:05;24.67;;;14.33;;
42514;SDS011;28144;49.920;18.730;2024-03-23T06:35:31;21.30;;;13.73;;
42514;SDS011;28144;49.920;18.730;2024-03-23T06:37:57;23.95;;;15.07;;
42514;SDS011;28144;49.920;18.730;2024-03-23T06:40:23;26.70;;;17.48;;
42514;SDS011;28144;49.920;18.730;2024-03-23T06:42:49;30.45;;;17.77;;
42514;SDS011;28144;49.920;18.730;2024-03-23T06:45:16;36.00;;;20.93;;
42514;SDS011;28144;49.920;18.730;2024-03-23T06:50:07;23.58;;;13.57;;
42514;SDS011;28144;49.920;18.730;2024-03-23T06:52:35;37.83;;;14.43;;
42514;SDS011;28144;49.920;18.730;2024-03-23T06:55:01;26.30;;;16.30;;
42514;SDS011;28144;49.920;18.730;2024-03-23T06:57:30;20.27;;;10.82;;
42514;SDS011;28144;49.920;18.730;2024-03-23T06:59:55;20.40;;;10.80;;
42514;SDS011;28144;49.920;18.730;2024-03-23T07:02:21;18.80;;;12.00;;
42514;SDS011;28144;49.920;18.730;2024-03-23T07:04:47;26.73;;;16.23;;
42514;SDS011;28144;49.920;18.730;2024-03-23T07:07:13;25.42;;;15.52;;
42514;SDS011;28144;49.920;18.730;2024-03-23T07:09:38;19.30;;;13.17;;
42514;SDS011;28144;49.920;18.730;2024-03-23T07:12:04;22.17;;;12.88;;
42514;SDS011;28144;49.920;18.730;2024-03-23T07:14:30;22.10;;;12.35;;
42514;SDS011;28144;49.920;18.730;2024-03-23T07:16:56;26.90;;;12.70;;
42514;SDS011;28144;49.920;18.730;2024-03-23T07:19:22;29.60;;;13.50;;
42514;SDS011;28144;49.920;18.730;2024-03-23T07:24:14;18.27;;;11.83;;
42514;SDS011;28144;49.920;18.730;2024-03-23T07:26:40;18.65;;;10.43;;
42514;SDS011;28144;49.920;18.730;2024-03-23T07:29:06;16.93;;;10.73;;
42514;SDS011;28144;49.920;18.730;2024-03-23T07:31:32;21.23;;;12.68;;
42514;SDS011;28144;49.920;18.730;2024-03-23T07:33:58;16.93;;;10.63;;
42514;SDS011;28144;49.920;18.730;2024-03-23T07:36:24;20.10;;;12.13;;
42514;SDS011;28144;49.920;18.730;2024-03-23T07:38:50;23.23;;;11.80;;
42514;SDS011;28144;49.920;18.730;2024-03-23T07:41:16;19.88;;;11.38;;
42514;SDS011;28144;49.920;18.730;2024-03-23T07:43:43;17.85;;;11.05;;
42514;SDS011;28144;49.920;18.730;2024-03-23T07:46:09;16.92;;;11.02;;
42514;SDS011;28144;49.920;18.730;2024-03-23T07:48:35;14.90;;;9.90;;
42514;SDS011;28144;49.920;18.730;2024-03-23T07:51:02;15.95;;;11.05;;
42514;SDS011;28144;49.920;18.730;2024-03-23T07:53:29;15.38;;;10.23;;
42514;SDS011;28144;49.920;18.730;2024-03-23T07:55:56;17.02;;;9.45;;
42514;SDS011;28144;49.920;18.730;2024-03-23T08:01:06;16.02;;;10.52;;
42514;SDS011;28144;49.920;18.730;2024-03-23T08:03:33;13.88;;;9.35;;
42514;SDS011;28144;49.920;18.730;2024-03-23T08:06:16;14.85;;;8.45;;
42514;SDS011;28144;49.920;18.730;2024-03-23T08:08:43;14.45;;;8.60;;
42514;SDS011;28144;49.920;18.730;2024-03-23T08:11:10;18.88;;;9.27;;
42514;SDS011;28144;49.920;18.730;2024-03-23T08:13:38;17.98;;;9.55;;
42514;SDS011;28144;49.920;18.730;2024-03-23T08:16:04;13.98;;;8.63;;
42514;SDS011;28144;49.920;18.730;2024-03-23T08:18:30;14.47;;;7.93;;
42514;SDS011;28144;49.920;18.730;2024-03-23T08:21:00;15.10;;;8.63;;
42514;SDS011;28144;49.920;18.730;2024-03-23T08:23:29;20.52;;;9.57;;
42514;SDS011;28144;49.920;18.730;2024-03-23T08:26:02;12.13;;;7.20;;
42514;SDS011;28144;49.920;18.730;2024-03-23T08:28:31;13.35;;;6.93;;
42514;SDS011;28144;49.920;18.730;2024-03-23T08:31:00;11.35;;;7.05;;
42514;SDS011;28144;49.920;18.730;2024-03-23T08:33:26;8.52;;;5.53;;
42514;SDS011;28144;49.920;18.730;2024-03-23T08:35:56;9.23;;;5.60;;
42514;SDS011;28144;49.920;18.730;2024-03-23T08:38:25;8.95;;;5.90;;
42514;SDS011;28144;49.920;18.730;2024-03-23T08:40:58;8.25;;;5.28;;
42514;SDS011;28144;49.920;18.730;2024-03-23T08:43:24;9.77;;;5.65;;
42514;SDS011;28144;49.920;18.730;2024-03-23T08:45:51;9.07;;;5.18;;
42514;SDS011;28144;49.920;18.730;2024-03-23T08:48:17;7.40;;;4.60;;
42514;SDS011;28144;49.920;18.730;2024-03-23T08:53:45;9.30;;;5.47;;
42514;SDS011;28144;49.920;18.730;2024-03-23T08:56:12;8.27;;;5.07;;
42514;SDS011;28144;49.920;18.730;2024-03-23T08:58:38;9.18;;;5.20;;
42514;SDS011;28144;49.920;18.730;2024-03-23T09:03:30;12.65;;;5.80;;
42514;SDS011;28144;49.920;18.730;2024-03-23T09:05:57;8.93;;;4.75;;
42514;SDS011;28144;49.920;18.730;2024-03-23T09:10:49;5.75;;;4.30;;
42514;SDS011;28144;49.920;18.730;2024-03-23T09:13:15;10.33;;;5.87;;
42514;SDS011;28144;49.920;18.730;2024-03-23T09:15:48;8.30;;;5.40;;
42514;SDS011;28144;49.920;18.730;2024-03-23T09:18:15;8.80;;;5.43;;
42514;SDS011;28144;49.920;18.730;2024-03-23T09:20:41;10.48;;;4.80;;
42514;SDS011;28144;49.920;18.730;2024-03-23T09:23:07;9.80;;;5.70;;
42514;SDS011;28144;49.920;18.730;2024-03-23T09:25:39;9.35;;;6.13;;
42514;SDS011;28144;49.920;18.730;2024-03-23T09:28:06;8.15;;;4.85;;
42514;SDS011;28144;49.920;18.730;2024-03-23T09:30:34;9.32;;;5.00;;
42514;SDS011;28144;49.920;18.730;2024-03-23T09:33:00;7.43;;;4.60;;
42514;SDS011;28144;49.920;18.730;2024-03-23T09:35:26;10.55;;;5.03;;
42514;SDS011;28144;49.920;18.730;2024-03-23T09:37:52;15.52;;;5.18;;
42514;SDS011;28144;49.920;18.730;2024-03-23T09:40:18;10.95;;;4.80;;
42514;SDS011;28144;49.920;18.730;2024-03-23T09:42:49;10.65;;;5.65;;
42514;SDS011;28144;49.920;18.730;2024-03-23T09:45:38;12.68;;;5.53;;
42514;SDS011;28144;49.920;18.730;2024-03-23T09:48:06;14.20;;;6.32;;
42514;SDS011;28144;49.920;18.730;2024-03-23T09:50:36;21.80;;;8.13;;
42514;SDS011;28144;49.920;18.730;2024-03-23T09:53:11;18.75;;;8.30;;
42514;SDS011;28144;49.920;18.730;2024-03-23T09:55:42;14.32;;;7.00;;
42514;SDS011;28144;49.920;18.730;2024-03-23T09:58:08;9.93;;;5.57;;
42514;SDS011;28144;49.920;18.730;2024-03-23T10:00:38;9.15;;;5.30;;
42514;SDS011;28144;49.920;18.730;2024-03-23T10:03:04;10.35;;;5.75;;
42514;SDS011;28144;49.920;18.730;2024-03-23T10:05:32;8.90;;;5.15;;
42514;SDS011;28144;49.920;18.730;2024-03-23T10:10:39;21.40;;;7.75;;
42514;SDS011;28144;49.920;18.730;2024-03-23T10:13:07;9.75;;;5.47;;
42514;SDS011;28144;49.920;18.730;2024-03-23T10:15:34;16.38;;;9.50;;
42514;SDS011;28144;49.920;18.730;2024-03-23T10:18:19;9.82;;;5.78;;
42514;SDS011;28144;49.920;18.730;2024-03-23T10:21:31;19.37;;;7.37;;
42514;SDS011;28144;49.920;18.730;2024-03-23T10:23:34;18.42;;;6.53;;
42514;SDS011;28144;49.920;18.730;2024-03-23T10:31:19;12.43;;;5.95;;
42514;SDS011;28144;49.920;18.730;2024-03-23T10:33:46;25.67;;;10.60;;
42514;SDS011;28144;49.920;18.730;2024-03-23T10:36:13;13.40;;;6.00;;
42514;SDS011;28144;49.920;18.730;2024-03-23T10:38:43;24.55;;;13.43;;
42514;SDS011;28144;49.920;18.730;2024-03-23T10:41:10;13.32;;;6.30;;
42514;SDS011;28144;49.920;18.730;2024-03-23T10:43:36;13.05;;;5.97;;
42514;SDS011;28144;49.920;18.730;2024-03-23T10:46:03;8.25;;;5.68;;
42514;SDS011;28144;49.920;18.730;2024-03-23T10:48:29;7.47;;;4.88;;
42514;SDS011;28144;49.920;18.730;2024-03-23T10:50:55;8.15;;;3.83;;
42514;SDS011;28144;49.920;18.730;2024-03-23T10:53:28;11.88;;;6.45;;
42514;SDS011;28144;49.920;18.730;2024-03-23T10:55:54;19.83;;;8.60;;
42514;SDS011;28144;49.920;18.730;2024-03-23T10:58:23;46.28;;;18.48;;
42514;SDS011;28144;49.920;18.730;2024-03-23T11:00:52;22.15;;;8.80;;
42514;SDS011;28144;49.920;18.730;2024-03-23T11:03:44;77.07;;;27.98;;
42514;SDS011;28144;49.920;18.730;2024-03-23T11:06:07;11.30;;;4.60;;
42514;SDS011;28144;49.920;18.730;2024-03-23T11:08:37;9.40;;;5.03;;
42514;SDS011;28144;49.920;18.730;2024-03-23T11:11:17;7.35;;;4.05;;
42514;SDS011;28144;49.920;18.730;2024-03-23T11:13:44;15.30;;;5.75;;
42514;SDS011;28144;49.920;18.730;2024-03-23T11:16:21;42.85;;;17.92;;
42514;SDS011;28144;49.920;18.730;2024-03-23T11:18:49;32.38;;;13.55;;
42514;SDS011;28144;49.920;18.730;2024-03-23T11:21:58;10.40;;;4.60;;
42514;SDS011;28144;49.920;18.730;2024-03-23T11:24:17;5.07;;;2.90;;
42514;SDS011;28144;49.920;18.730;2024-03-23T11:26:47;6.10;;;3.95;;
42514;SDS011;28144;49.920;18.730;2024-03-23T11:29:14;14.85;;;7.75;;
42514;SDS011;28144;49.920;18.730;2024-03-23T11:31:48;11.07;;;5.07;;
42514;SDS011;28144;49.920;18.730;2024-03-23T11:34:17;16.88;;;8.98;;
42514;SDS011;28144;49.920;18.730;2024-03-23T11:36:44;2.80;;;2.05;;
42514;SDS011;28144;49.920;18.730;2024-03-23T11:39:17;7.93;;;4.05;;
42514;SDS011;28144;49.920;18.730;2024-03-23T11:41:48;5.47;;;3.47;;
42514;SDS011;28144;49.920;18.730;2024-03-23T11:44:21;8.95;;;3.72;;
42514;SDS011;28144;49.920;18.730;2024-03-23T11:46:51;3.65;;;1.30;;
42514;SDS011;28144;49.920;18.730;2024-03-23T11:49:24;5.47;;;1.10;;
42514;SDS011;28144;49.920;18.730;2024-03-23T11:51:55;5.40;;;2.08;;
42514;SDS011;28144;49.920;18.730;2024-03-23T11:54:22;3.40;;;1.50;;
42514;SDS011;28144;49.920;18.730;2024-03-23T11:56:55;2.22;;;1.60;;
42514;SDS011;28144;49.920;18.730;2024-03-23T11:59:35;13.32;;;1.98;;
42514;SDS011;28144;49.920;18.730;2024-03-23T12:02:07;5.00;;;2.22;;
42514;SDS011;28144;49.920;18.730;2024-03-23T12:04:37;11.18;;;5.32;;
42514;SDS011;28144;49.920;18.730;2024-03-23T12:07:16;14.75;;;5.70;;
42514;SDS011;28144;49.920;18.730;2024-03-23T12:10:02;12.25;;;2.85;;
42514;SDS011;28144;49.920;18.730;2024-03-23T12:12:29;6.63;;;3.10;;
42514;SDS011;28144;49.920;18.730;2024-03-23T12:15:02;8.33;;;2.50;;
42514;SDS011;28144;49.920;18.730;2024-03-23T12:17:37;3.55;;;2.00;;
42514;SDS011;28144;49.920;18.730;2024-03-23T12:20:02;7.43;;;3.00;;
42514;SDS011;28144;49.920;18.730;2024-03-23T12:24:57;3.78;;;2.63;;
42514;SDS011;28144;49.920;18.730;2024-03-23T12:27:23;6.10;;;2.65;;
42514;SDS011;28144;49.920;18.730;2024-03-23T12:29:49;23.58;;;8.77;;
42514;SDS011;28144;49.920;18.730;2024-03-23T12:32:15;5.38;;;2.22;;
42514;SDS011;28144;49.920;18.730;2024-03-23T12:34:41;19.33;;;6.40;;
42514;SDS011;28144;49.920;18.730;2024-03-23T12:37:08;13.07;;;7.03;;
42514;SDS011;28144;49.920;18.730;2024-03-23T12:42:01;6.05;;;2.40;;
42514;SDS011;28144;49.920;18.730;2024-03-23T12:44:30;2.70;;;1.45;;
42514;SDS011;28144;49.920;18.730;2024-03-23T12:49:22;3.20;;;1.63;;
42514;SDS011;28144;49.920;18.730;2024-03-23T12:51:55;5.40;;;1.73;;
42514;SDS011;28144;49.920;18.730;2024-03-23T12:54:22;7.10;;;2.55;;
42514;SDS011;28144;49.920;18.730;2024-03-23T12:59:14;6.55;;;3.42;;
42514;SDS011;28144;49.920;18.730;2024-03-23T13:05:02;3.78;;;2.00;;
42514;SDS011;28144;49.920;18.730;2024-03-23T13:07:28;8.65;;;3.10;;
42514;SDS011;28144;49.920;18.730;2024-03-23T13:09:54;10.82;;;2.83;;
42514;SDS011;28144;49.920;18.730;2024-03-23T13:12:22;7.47;;;2.45;;
42514;SDS011;28144;49.920;18.730;2024-03-23T13:17:14;3.45;;;2.20;;
42514;SDS011;28144;49.920;18.730;2024-03-23T13:19:40;4.93;;;3.03;;
42514;SDS011;28144;49.920;18.730;2024-03-23T13:22:06;4.85;;;2.65;;
42514;SDS011;28144;49.920;18.730;2024-03-23T13:24:32;6.10;;;2.30;;
42514;SDS011;28144;49.920;18.730;2024-03-23T13:26:58;5.67;;;3.00;;
42514;SDS011;28144;49.920;18.730;2024-03-23T13:29:24;10.43;;;5.38;;
42514;SDS011;28144;49.920;18.730;2024-03-23T13:31:51;9.63;;;4.38;;
42514;SDS011;28144;49.920;18.730;2024-03-23T13:34:17;4.93;;;2.50;;
42514;SDS011;28144;49.920;18.730;2024-03-23T13:36:44;13.40;;;5.47;;
42514;SDS011;28144;49.920;18.730;2024-03-23T13:39:10;9.52;;;2.10;;
42514;SDS011;28144;49.920;18.730;2024-03-23T13:41:43;8.57;;;1.90;;
42514;SDS011;28144;49.920;18.730;2024-03-23T13:44:10;3.70;;;2.00;;
42514;SDS011;28144;49.920;18.730;2024-03-23T13:46:37;7.75;;;2.58;;
42514;SDS011;28144;49.920;18.730;2024-03-23T13:51:49;9.20;;;2.47;;
42514;SDS011;28144;49.920;18.730;2024-03-23T13:54:15;5.25;;;2.50;;
42514;SDS011;28144;49.920;18.730;2024-03-23T13:56:41;7.27;;;3.60;;
42514;SDS011;28144;49.920;18.730;2024-03-23T13:59:07;9.70;;;4.80;;
42514;SDS011;28144;49.920;18.730;2024-03-23T14:01:32;6.80;;;3.20;;
42514;SDS011;28144;49.920;18.730;2024-03-23T14:03:59;10.38;;;4.90;;
42514;SDS011;28144;49.920;18.730;2024-03-23T14:06:24;10.13;;;3.07;;
42514;SDS011;28144;49.920;18.730;2024-03-23T14:08:50;10.43;;;4.23;;
42514;SDS011;28144;49.920;18.730;2024-03-23T14:11:17;10.03;;;3.70;;
42514;SDS011;28144;49.920;18.730;2024-03-23T14:13:44;6.30;;;2.75;;
42514;SDS011;28144;49.920;18.730;2024-03-23T14:16:10;7.75;;;2.60;;
42514;SDS011;28144;49.920;18.730;2024-03-23T14:18:36;9.07;;;3.20;;
42514;SDS011;28144;49.920;18.730;2024-03-23T14:21:02;9.53;;;3.83;;
42514;SDS011;28144;49.920;18.730;2024-03-23T14:23:28;6.18;;;2.65;;
42514;SDS011;28144;49.920;18.730;2024-03-23T14:25:58;5.20;;;2.10;;
42514;SDS011;28144;49.920;18.730;2024-03-23T14:28:24;6.50;;;1.85;;
42514;SDS011;28144;49.920;18.730;2024-03-23T14:30:50;5.33;;;2.40;;
42514;SDS011;28144;49.920;18.730;2024-03-23T14:33:16;31.42;;;14.95;;
42514;SDS011;28144;49.920;18.730;2024-03-23T14:35:55;7.00;;;3.30;;
42514;SDS011;28144;49.920;18.730;2024-03-23T14:38:21;4.90;;;2.10;;
42514;SDS011;28144;49.920;18.730;2024-03-23T14:40:46;2.93;;;1.53;;
42514;SDS011;28144;49.920;18.730;2024-03-23T14:43:12;5.00;;;1.83;;
42514;SDS011;28144;49.920;18.730;2024-03-23T14:48:41;3.33;;;1.92;;
42514;SDS011;28144;49.920;18.730;2024-03-23T14:51:08;4.18;;;2.20;;
42514;SDS011;28144;49.920;18.730;2024-03-23T14:53:35;5.97;;;2.50;;
42514;SDS011;28144;49.920;18.730;2024-03-23T14:58:28;8.27;;;3.10;;
42514;SDS011;28144;49.920;18.730;2024-03-23T15:01:01;8.25;;;3.97;;
42514;SDS011;28144;49.920;18.730;2024-03-23T15:07:00;6.13;;;2.67;;
42514;SDS011;28144;49.920;18.730;2024-03-23T15:09:32;8.32;;;3.30;;
42514;SDS011;28144;49.920;18.730;2024-03-23T15:11:59;3.78;;;1.90;;
42514;SDS011;28144;49.920;18.730;2024-03-23T15:14:37;5.43;;;2.50;;
42514;SDS011;28144;49.920;18.730;2024-03-23T15:17:03;5.00;;;2.55;;
42514;SDS011;28144;49.920;18.730;2024-03-23T15:23:13;12.40;;;4.60;;
42514;SDS011;28144;49.920;18.730;2024-03-23T15:25:39;8.63;;;3.25;;
42514;SDS011;28144;49.920;18.730;2024-03-23T15:28:04;10.40;;;4.70;;
42514;SDS011;28144;49.920;18.730;2024-03-23T15:30:30;15.88;;;7.55;;
42514;SDS011;28144;49.920;18.730;2024-03-23T15:32:56;7.73;;;2.80;;
42514;SDS011;28144;49.920;18.730;2024-03-23T15:35:22;8.53;;;3.40;;
42514;SDS011;28144;49.920;18.730;2024-03-23T15:37:49;5.95;;;2.78;;
42514;SDS011;28144;49.920;18.730;2024-03-23T15:42:41;3.87;;;2.03;;
42514;SDS011;28144;49.920;18.730;2024-03-23T15:45:07;6.75;;;2.97;;
42514;SDS011;28144;49.920;18.730;2024-03-23T15:47:33;8.32;;;3.80;;
42514;SDS011;28144;49.920;18.730;2024-03-23T15:50:00;8.10;;;4.10;;
42514;SDS011;28144;49.920;18.730;2024-03-23T15:52:26;12.93;;;6.40;;
42514;SDS011;28144;49.920;18.730;2024-03-23T15:54:51;8.07;;;3.92;;
42514;SDS011;28144;49.920;18.730;2024-03-23T15:57:17;10.97;;;3.80;;
42514;SDS011;28144;49.920;18.730;2024-03-23T15:59:51;8.25;;;3.63;;
42514;SDS011;28144;49.920;18.730;2024-03-23T16:02:17;6.45;;;2.78;;
42514;SDS011;28144;49.920;18.730;2024-03-23T16:04:43;5.80;;;3.40;;
42514;SDS011;28144;49.920;18.730;2024-03-23T16:07:10;4.95;;;2.58;;
42514;SDS011;28144;49.920;18.730;2024-03-23T16:09:36;6.22;;;2.30;;
42514;SDS011;28144;49.920;18.730;2024-03-23T16:12:03;4.95;;;2.53;;
42514;SDS011;28144;49.920;18.730;2024-03-23T16:14:29;5.55;;;2.47;;
42514;SDS011;28144;49.920;18.730;2024-03-23T16:16:54;5.43;;;2.40;;